Time;durP1;ratioP1;P1;durP2;ratioP2;P2;SDS_P1;SDS_P2;PMS_P1;PMS_P2;Temp;Humidity;BMP_temperature;BMP_pressure;BME280_temperature;BME280_humidity;BME280_pressure;Samples;Min_cycle;Max_cycle;Signal;HPM_P1;HPM_P2
2022/08/05 00:01:20;;;;;;;9.90;3.50;;;18.50;99.90;;;;;;4937254;28;20034;-85
2022/08/05 00:03:50;;;;;;;8.40;2.88;;;18.50;99.90;;;;;;4967612;28;20054;-85
2022/08/05 00:06:16;;;;;;;8.80;3.30;;;18.50;99.90;;;;;;4951377;28;20486;-85
2022/08/05 00:08:43;;;;;;;9.25;2.97;;;18.40;99.90;;;;;;4954285;28;20047;-85
2022/08/05 00:11:13;;;;;;;9.20;2.97;;;18.40;99.90;;;;;;4969544;28;20488;-85
2022/08/05 00:13:40;;;;;;;10.18;3.10;;;18.40;99.90;;;;;;4967860;28;20051;-85
2022/08/05 00:16:08;;;;;;;9.88;2.95;;;18.40;99.90;;;;;;4967765;28;20105;-85
2022/08/05 00:18:38;;;;;;;8.23;2.95;;;18.40;99.90;;;;;;4936905;28;20441;-84
2022/08/05 00:21:05;;;;;;;10.32;2.88;;;18.40;99.90;;;;;;4977163;28;20078;-84
2022/08/05 00:23:30;;;;;;;8.05;2.72;;;18.40;99.90;;;;;;4968211;28;20443;-85
2022/08/05 00:25:56;;;;;;;6.65;2.45;;;18.40;99.90;;;;;;4953261;28;20042;-84
2022/08/05 00:28:22;;;;;;;10.07;3.13;;;18.40;99.90;;;;;;4922224;28;20050;-85
2022/08/05 00:30:47;;;;;;;8.48;2.80;;;18.40;99.90;;;;;;4969247;28;20043;-84
2022/08/05 00:33:15;;;;;;;9.25;2.83;;;18.40;99.90;;;;;;4951633;28;20055;-84
2022/08/05 00:35:41;;;;;;;8.02;2.85;;;18.40;99.90;;;;;;4961129;28;20076;-84
2022/08/05 00:38:06;;;;;;;8.38;2.58;;;18.30;99.90;;;;;;4986219;28;20483;-85
2022/08/05 00:40:33;;;;;;;9.20;2.80;;;18.30;99.90;;;;;;4954255;28;20057;-85
2022/08/05 00:43:01;;;;;;;9.60;2.70;;;18.30;99.90;;;;;;4951808;28;20061;-84
2022/08/05 00:45:28;;;;;;;8.43;2.90;;;18.30;99.90;;;;;;4949407;28;20051;-84
2022/08/05 00:47:54;;;;;;;12.55;2.60;;;18.20;99.90;;;;;;4953039;28;20046;-84
2022/08/05 00:50:20;;;;;;;6.55;2.25;;;18.20;99.90;;;;;;4953067;28;20043;-84
2022/08/05 00:52:45;;;;;;;6.88;2.20;;;18.20;99.90;;;;;;4952247;28;20051;-84
2022/08/05 00:55:11;;;;;;;8.68;2.53;;;18.20;99.90;;;;;;4934152;28;20084;-84
2022/08/05 00:57:37;;;;;;;10.23;2.67;;;18.20;99.90;;;;;;4953543;28;20528;-85
2022/08/05 01:00:05;;;;;;;8.45;2.67;;;18.20;99.90;;;;;;4936990;28;20038;-85
2022/08/05 01:02:31;;;;;;;9.07;2.63;;;18.20;99.90;;;;;;4953573;28;20047;-84
2022/08/05 01:04:56;;;;;;;9.18;2.40;;;18.10;99.90;;;;;;4948554;28;20125;-84
2022/08/05 01:07:22;;;;;;;6.97;2.40;;;18.20;99.90;;;;;;4932420;28;20050;-85
2022/08/05 01:09:48;;;;;;;8.35;2.40;;;18.20;99.90;;;;;;4937964;28;20050;-85
2022/08/05 01:12:19;;;;;;;7.38;2.55;;;18.20;99.90;;;;;;4936716;28;20047;-85
2022/08/05 01:14:50;;;;;;;10.43;2.50;;;18.20;99.90;;;;;;4963435;28;20043;-84
2022/08/05 01:17:39;;;;;;;8.07;2.38;;;18.20;99.90;;;;;;4967938;28;20045;-85
2022/08/05 01:20:24;;;;;;;6.68;2.20;;;18.30;99.90;;;;;;4949040;28;20038;-84
2022/08/05 01:23:10;;;;;;;7.70;2.47;;;18.20;99.90;;;;;;4952966;28;20507;-85
2022/08/05 01:25:54;;;;;;;9.60;2.75;;;18.20;99.90;;;;;;4966776;28;20057;-85
2022/08/05 01:28:23;;;;;;;12.07;2.55;;;18.20;99.90;;;;;;4953106;28;20059;-84
2022/08/05 01:31:15;;;;;;;7.50;2.35;;;18.20;99.90;;;;;;4955642;28;20050;-84
2022/08/05 01:33:47;;;;;;;9.55;2.78;;;18.20;99.90;;;;;;4962295;28;20596;-84
2022/08/05 01:36:16;;;;;;;9.27;3.17;;;18.20;99.90;;;;;;4966995;28;20075;-85
2022/08/05 01:38:45;;;;;;;8.13;2.50;;;18.20;99.90;;;;;;4969460;28;20046;-85
2022/08/05 01:41:13;;;;;;;7.72;2.60;;;18.20;99.90;;;;;;4951845;28;20146;-85
2022/08/05 01:43:40;;;;;;;9.57;2.92;;;18.20;99.90;;;;;;4966659;28;20066;-85
2022/08/05 01:46:07;;;;;;;8.10;2.55;;;18.20;99.90;;;;;;4934748;28;20432;-85
2022/08/05 01:48:35;;;;;;;10.43;2.90;;;18.20;99.90;;;;;;4949542;28;20043;-85
2022/08/05 01:51:03;;;;;;;9.57;2.80;;;18.20;99.90;;;;;;4968456;28;20050;-84
2022/08/05 01:53:33;;;;;;;8.85;2.75;;;18.20;99.90;;;;;;4952311;28;20053;-84
2022/08/05 01:56:00;;;;;;;8.52;2.75;;;18.20;99.90;;;;;;4948122;28;20072;-85
2022/08/05 01:58:27;;;;;;;9.50;2.70;;;18.10;99.90;;;;;;4950316;28;20122;-84
2022/08/05 02:00:57;;;;;;;9.13;2.88;;;18.10;99.90;;;;;;4968611;28;20049;-85
2022/08/05 02:03:50;;;;;;;7.25;2.88;;;18.10;99.90;;;;;;4933967;28;20043;-84
2022/08/05 02:06:16;;;;;;;8.23;2.70;;;18.10;99.90;;;;;;4963008;28;20534;-84
2022/08/05 02:08:42;;;;;;;7.50;2.45;;;18.10;99.90;;;;;;4934657;28;20043;-84
2022/08/05 02:11:11;;;;;;;9.95;2.90;;;18.10;99.90;;;;;;4937064;28;20042;-85
2022/08/05 02:13:44;;;;;;;10.00;3.10;;;18.10;99.90;;;;;;4948033;28;20066;-84
2022/08/05 02:16:10;;;;;;;;;;;18.10;99.90;;;;;;4952450;28;20054;-84
2022/08/05 02:18:43;;;;;;;9.73;2.50;;;18.00;99.90;;;;;;4949077;28;19922;-85
2022/08/05 02:21:14;;;;;;;9.18;2.78;;;18.00;99.90;;;;;;4952870;28;20165;-85
2022/08/05 02:23:42;;;;;;;8.98;2.80;;;18.00;99.90;;;;;;4950565;28;20038;-85
2022/08/05 02:26:12;;;;;;;8.30;2.75;;;18.00;99.90;;;;;;4967407;28;20496;-84
2022/08/05 02:28:41;;;;;;;10.07;2.78;;;18.00;99.90;;;;;;4988349;28;20057;-84
2022/08/05 02:31:14;;;;;;;10.98;3.30;;;18.00;99.90;;;;;;4985459;28;20546;-85
2022/08/05 02:33:46;;;;;;;10.00;2.70;;;18.00;99.90;;;;;;4989873;28;20046;-84
2022/08/05 02:36:15;;;;;;;9.43;3.00;;;18.00;99.90;;;;;;4955669;28;20132;-84
2022/08/05 02:38:45;;;;;;;7.63;2.83;;;17.90;99.90;;;;;;4939909;28;20524;-84
2022/08/05 02:41:11;;;;;;;9.18;3.08;;;17.90;99.90;;;;;;4955508;28;20046;-85
2022/08/05 02:43:39;;;;;;;10.70;3.15;;;17.90;99.90;;;;;;4970957;28;20038;-85
2022/08/05 02:46:05;;;;;;;8.10;2.67;;;17.90;99.90;;;;;;4955284;28;20072;-85
2022/08/05 02:48:32;;;;;;;9.07;3.00;;;17.90;99.90;;;;;;4936967;28;20435;-84
2022/08/05 02:50:59;;;;;;;9.65;2.80;;;18.00;99.90;;;;;;4939282;28;20082;-84
2022/08/05 02:53:26;;;;;;;8.88;2.85;;;18.00;99.90;;;;;;4955075;28;20126;-84
2022/08/05 02:55:53;;;;;;;8.68;2.75;;;17.90;99.90;;;;;;4955612;28;20046;-84
2022/08/05 02:58:21;;;;;;;9.25;2.80;;;17.90;99.90;;;;;;4938539;28;20039;-84
2022/08/05 03:00:47;;;;;;;9.90;2.83;;;17.90;99.90;;;;;;4959653;28;20054;-84
2022/08/05 03:03:19;;;;;;;9.75;2.80;;;17.90;99.90;;;;;;4937505;28;20516;-84
2022/08/05 03:05:46;;;;;;;10.10;3.22;;;17.90;99.90;;;;;;4954722;28;20068;-84
2022/08/05 03:08:13;;;;;;;7.55;2.60;;;17.90;99.90;;;;;;4955102;28;20121;-84
2022/08/05 03:10:44;;;;;;;10.73;2.58;;;17.80;99.90;;;;;;4936042;29;20377;-85
2022/08/05 03:13:14;;;;;;;14.07;3.95;;;17.90;99.90;;;;;;4985330;28;20057;-84
2022/08/05 03:15:44;;;;;;;8.40;3.05;;;17.90;99.90;;;;;;4950971;28;20089;-84
2022/08/05 03:18:10;;;;;;;7.18;2.63;;;17.80;99.90;;;;;;4952111;28;20035;-84
2022/08/05 03:20:37;;;;;;;7.57;2.72;;;17.80;99.90;;;;;;4937761;28;20068;-84
2022/08/05 03:23:05;;;;;;;8.48;2.58;;;17.80;99.90;;;;;;4954944;28;20178;-85
2022/08/05 03:25:32;;;;;;;8.00;2.63;;;17.80;99.90;;;;;;4955940;28;20078;-84
2022/08/05 03:27:59;;;;;;;9.15;2.70;;;17.90;99.90;;;;;;4954217;28;20049;-85
2022/08/05 03:30:27;;;;;;;9.23;2.60;;;17.90;99.90;;;;;;4953809;28;20042;-85
2022/08/05 03:32:53;;;;;;;8.95;2.60;;;17.90;99.90;;;;;;4953763;28;20046;-85
2022/08/05 03:35:22;;;;;;;8.65;2.45;;;18.00;99.90;;;;;;4971582;28;20105;-84
2022/08/05 03:37:48;;;;;;;12.80;2.47;;;18.00;99.90;;;;;;4954354;28;20046;-84
2022/08/05 03:40:14;;;;;;;9.55;2.40;;;18.00;99.90;;;;;;4953645;28;20364;-84
2022/08/05 03:42:39;;;;;;;8.75;2.50;;;18.00;99.90;;;;;;4952997;28;20050;-84
2022/08/05 03:45:06;;;;;;;10.10;3.22;;;18.00;99.90;;;;;;4955239;28;20038;-84
2022/08/05 03:47:32;;;;;;;8.57;2.38;;;18.00;99.90;;;;;;4953232;28;20053;-84
2022/08/05 03:49:58;;;;;;;6.65;2.30;;;18.10;99.90;;;;;;4947773;28;20046;-84
2022/08/05 03:52:28;;;;;;;8.60;2.60;;;18.10;99.90;;;;;;4933732;28;20039;-85
2022/08/05 03:55:00;;;;;;;8.65;2.70;;;18.10;99.90;;;;;;4971448;28;20069;-84
2022/08/05 03:57:32;;;;;;;7.25;2.25;;;18.10;99.90;;;;;;4970584;28;20487;-84
2022/08/05 04:00:10;;;;;;;5.68;2.17;;;18.10;99.90;;;;;;4953567;28;20030;-84
2022/08/05 04:02:37;;;;;;;9.77;2.50;;;18.10;99.90;;;;;;4952896;28;20078;-85
2022/08/05 04:05:05;;;;;;;6.93;2.13;;;18.10;99.90;;;;;;4954171;28;20034;-85
2022/08/05 04:07:33;;;;;;;8.18;2.20;;;18.10;99.90;;;;;;4984531;28;20054;-85
2022/08/05 04:09:59;;;;;;;7.03;2.42;;;18.10;99.90;;;;;;4979205;28;20170;-84
2022/08/05 04:12:25;;;;;;;8.15;2.53;;;18.10;99.90;;;;;;4953453;28;20122;-85
2022/08/05 04:14:51;;;;;;;7.03;2.30;;;18.10;99.90;;;;;;4952668;28;20114;-84
2022/08/05 04:17:18;;;;;;;7.57;2.50;;;18.10;99.90;;;;;;4938429;28;20038;-85
2022/08/05 04:19:45;;;;;;;11.05;2.83;;;18.10;99.90;;;;;;4937051;28;20134;-85
2022/08/05 04:22:11;;;;;;;8.77;2.58;;;18.10;99.90;;;;;;4966001;28;20035;-84
2022/08/05 04:24:42;;;;;;;7.57;2.30;;;18.10;99.90;;;;;;4951464;28;20122;-84
2022/08/05 04:27:08;;;;;;;6.78;2.30;;;18.00;99.90;;;;;;4954420;28;20047;-84
2022/08/05 04:29:35;;;;;;;6.13;2.13;;;18.10;99.90;;;;;;4986074;28;20066;-84
2022/08/05 04:32:00;;;;;;;8.13;2.40;;;18.10;99.90;;;;;;4935314;28;20039;-84
2022/08/05 04:34:27;;;;;;;7.43;2.25;;;18.10;99.90;;;;;;4935239;28;20508;-84
2022/08/05 04:36:53;;;;;;;7.50;2.17;;;18.10;99.90;;;;;;4937951;28;20078;-85
2022/08/05 04:39:19;;;;;;;9.07;2.75;;;18.10;99.90;;;;;;4951613;28;20043;-85
2022/08/05 04:41:46;;;;;;;10.05;2.58;;;18.10;99.90;;;;;;4967877;28;20415;-84
2022/08/05 04:44:12;;;;;;;9.98;3.03;;;18.10;99.90;;;;;;4967170;28;20638;-84
2022/08/05 04:46:38;;;;;;;7.13;2.22;;;18.10;99.90;;;;;;4949878;28;20046;-84
2022/08/05 04:49:07;;;;;;;7.13;2.45;;;18.10;99.90;;;;;;4939566;28;20046;-84
2022/08/05 04:51:33;;;;;;;8.63;2.65;;;18.00;99.90;;;;;;4936713;28;20039;-84
2022/08/05 04:53:59;;;;;;;9.80;2.78;;;18.00;99.90;;;;;;4931950;28;20514;-84
2022/08/05 04:56:25;;;;;;;7.75;2.58;;;18.00;99.90;;;;;;4947369;28;20062;-85
2022/08/05 04:58:51;;;;;;;9.43;2.72;;;18.00;99.90;;;;;;4956012;28;20708;-84
2022/08/05 05:01:17;;;;;;;9.68;2.70;;;18.00;99.90;;;;;;4966551;28;20031;-85
2022/08/05 05:03:43;;;;;;;6.78;2.55;;;18.00;99.90;;;;;;4950159;28;20145;-84
2022/08/05 05:06:09;;;;;;;8.98;2.70;;;18.00;99.90;;;;;;4934051;28;20035;-84
2022/08/05 05:08:36;;;;;;;8.27;2.30;;;18.00;99.90;;;;;;4967076;28;20034;-84
2022/08/05 05:11:02;;;;;;;8.57;2.58;;;18.00;99.90;;;;;;4967317;28;20039;-85
2022/08/05 05:13:27;;;;;;;8.32;2.70;;;18.00;99.90;;;;;;4936714;28;20097;-85
2022/08/05 05:15:53;;;;;;;8.43;2.60;;;18.00;99.90;;;;;;4952692;28;20074;-84
2022/08/05 05:18:19;;;;;;;7.47;2.50;;;18.00;99.90;;;;;;4949363;28;20038;-85
2022/08/05 05:20:45;;;;;;;7.43;2.50;;;18.00;99.90;;;;;;4967671;28;20043;-85
2022/08/05 05:23:12;;;;;;;8.85;2.60;;;18.10;99.90;;;;;;4949652;28;20066;-84
2022/08/05 05:25:40;;;;;;;12.18;2.80;;;18.00;99.90;;;;;;4951572;28;20050;-84
2022/08/05 05:28:06;;;;;;;10.27;2.50;;;18.00;99.90;;;;;;4980521;28;20118;-84
2022/08/05 05:30:32;;;;;;;11.02;2.88;;;18.00;99.90;;;;;;4953676;28;20058;-84
2022/08/05 05:32:59;;;;;;;7.78;2.60;;;18.00;99.90;;;;;;4952091;28;20053;-84
2022/08/05 05:35:25;;;;;;;8.90;3.00;;;18.00;99.90;;;;;;4969043;28;20043;-84
2022/08/05 05:37:56;;;;;;;7.72;2.47;;;18.10;99.90;;;;;;4953134;28;20094;-84
2022/08/05 05:40:23;;;;;;;10.68;2.72;;;18.10;99.90;;;;;;4953072;28;20121;-84
2022/08/05 05:42:50;;;;;;;8.23;2.92;;;18.10;99.90;;;;;;4952091;28;20078;-84
2022/08/05 05:45:16;;;;;;;8.60;2.83;;;18.10;99.90;;;;;;4942235;29;20457;-84
2022/08/05 05:47:42;;;;;;;9.55;2.80;;;18.10;99.90;;;;;;4973698;28;20033;-84
2022/08/05 05:50:10;;;;;;;9.15;2.55;;;18.10;99.90;;;;;;4976009;28;20066;-84
2022/08/05 05:52:37;;;;;;;9.40;2.40;;;18.10;99.90;;;;;;4952646;28;20129;-84
2022/08/05 05:55:05;;;;;;;9.50;2.80;;;18.10;99.90;;;;;;4962126;28;20039;-86
2022/08/05 05:57:30;;;;;;;7.63;2.60;;;18.00;99.90;;;;;;4960106;28;20045;-84
2022/08/05 05:59:56;;;;;;;7.45;2.47;;;18.00;99.90;;;;;;4950146;28;20043;-84
2022/08/05 06:02:22;;;;;;;8.00;2.20;;;18.00;99.90;;;;;;4947815;28;20141;-85
2022/08/05 06:04:47;;;;;;;8.60;2.35;;;18.00;99.90;;;;;;4949977;28;20112;-85
2022/08/05 06:07:13;;;;;;;6.55;2.10;;;18.10;99.90;;;;;;4957987;28;20519;-85
2022/08/05 06:09:39;;;;;;;9.25;2.70;;;18.10;99.90;;;;;;4955830;28;20526;-85
2022/08/05 06:12:05;;;;;;;8.18;2.53;;;18.20;99.90;;;;;;4916349;28;20181;-85
2022/08/05 06:14:31;;;;;;;7.82;2.40;;;18.20;99.90;;;;;;4932427;28;20046;-85
2022/08/05 06:16:58;;;;;;;7.53;2.25;;;18.20;99.90;;;;;;4937723;28;20039;-86
2022/08/05 06:19:23;;;;;;;7.13;2.30;;;18.30;99.90;;;;;;4952322;28;20069;-86
2022/08/05 06:21:49;;;;;;;7.43;2.40;;;18.50;99.90;;;;;;4954732;28;20081;-86
2022/08/05 06:24:15;;;;;;;6.72;2.20;;;18.60;99.90;;;;;;4937236;28;20122;-85
2022/08/05 06:26:41;;;;;;;5.30;1.95;;;18.70;99.90;;;;;;4941879;28;20035;-86
2022/08/05 06:29:07;;;;;;;6.80;2.17;;;18.80;99.90;;;;;;4969424;28;20058;-86
2022/08/05 06:31:33;;;;;;;5.95;2.03;;;18.80;99.90;;;;;;4956074;28;20389;-87
2022/08/05 06:33:58;;;;;;;6.47;1.88;;;18.90;99.90;;;;;;4938388;28;20179;-87
2022/08/05 06:36:24;;;;;;;3.80;1.58;;;18.80;99.90;;;;;;4953811;28;20054;-87
2022/08/05 06:38:53;;;;;;;8.05;2.30;;;18.90;99.90;;;;;;4956773;28;20047;-86
2022/08/05 06:41:19;;;;;;;4.20;1.65;;;19.00;99.90;;;;;;4938269;28;20035;-86
2022/08/05 06:43:46;;;;;;;5.22;1.63;;;19.00;99.90;;;;;;4972589;28;20057;-86
2022/08/05 06:46:11;;;;;;;4.38;1.80;;;19.10;99.90;;;;;;4952202;28;20047;-87
2022/08/05 06:48:37;;;;;;;5.40;1.67;;;19.10;99.90;;;;;;4953824;28;20097;-86
2022/08/05 06:51:04;;;;;;;6.10;1.70;;;19.20;99.90;;;;;;4939380;28;20046;-86
2022/08/05 06:53:30;;;;;;;4.70;1.55;;;19.20;99.90;;;;;;4939989;28;20046;-86
2022/08/05 06:56:02;;;;;;;7.18;1.90;;;19.40;99.90;;;;;;4968201;28;20427;-84
2022/08/05 06:58:28;;;;;;;4.13;1.50;;;19.50;99.90;;;;;;4955151;28;20107;-86
2022/08/05 07:00:54;;;;;;;6.57;1.67;;;19.50;99.90;;;;;;4969887;28;20046;-85
2022/08/05 07:03:19;;;;;;;5.13;1.60;;;19.60;99.90;;;;;;4936513;28;20030;-84
2022/08/05 07:05:45;;;;;;;5.97;1.60;;;19.70;99.90;;;;;;4938680;28;20522;-86
2022/08/05 07:08:11;;;;;;;5.78;1.60;;;19.80;99.90;;;;;;4960553;28;20050;-86
2022/08/05 07:10:37;;;;;;;5.05;1.50;;;19.90;99.90;;;;;;5003283;28;20050;-86
2022/08/05 07:18:45;;;;;;;6.75;1.48;;;20.00;99.90;;;;;;4927756;28;20070;-85
2022/08/05 07:21:11;;;;;;;6.60;1.40;;;19.80;99.90;;;;;;4954309;28;20788;-86
2022/08/05 07:23:37;;;;;;;3.92;1.48;;;19.70;99.90;;;;;;4939795;28;20082;-86
2022/08/05 07:26:03;;;;;;;3.42;1.30;;;19.50;99.90;;;;;;4972021;28;20047;-87
2022/08/05 07:28:29;;;;;;;5.50;1.40;;;19.50;99.90;;;;;;4935770;28;20082;-85
2022/08/05 07:30:55;;;;;;;4.40;1.58;;;19.50;99.90;;;;;;4955774;28;20242;-86
2022/08/05 07:33:21;;;;;;;5.30;1.40;;;19.50;99.90;;;;;;4953105;28;20546;-87
2022/08/05 07:35:47;;;;;;;2.50;1.33;;;19.60;99.90;;;;;;4953971;28;20405;-86
2022/08/05 07:38:14;;;;;;;4.43;1.60;;;19.70;99.90;;;;;;4953147;28;20045;-86
2022/08/05 07:40:40;;;;;;;3.88;1.27;;;19.80;99.90;;;;;;4954833;28;20039;-86
2022/08/05 07:43:05;;;;;;;4.82;1.40;;;19.80;99.90;;;;;;4954807;28;20042;-86
2022/08/05 07:45:31;;;;;;;5.85;1.50;;;19.70;99.90;;;;;;4938039;28;20051;-86
2022/08/05 07:47:57;;;;;;;3.33;1.20;;;19.80;99.90;;;;;;4952364;28;20558;-85
2022/08/05 07:50:24;;;;;;;5.05;1.40;;;19.70;99.90;;;;;;4953534;28;20034;-85
2022/08/05 07:52:50;;;;;;;3.22;1.42;;;19.70;99.90;;;;;;4954115;28;20559;-86
2022/08/05 07:55:15;;;;;;;3.35;1.30;;;19.90;99.90;;;;;;4937916;28;20122;-87
2022/08/05 07:57:41;;;;;;;5.13;1.38;;;20.10;99.90;;;;;;4969831;28;20077;-86
2022/08/05 08:00:07;;;;;;;3.47;1.27;;;20.30;99.90;;;;;;4951319;28;20034;-86
2022/08/05 08:02:33;;;;;;;4.72;1.33;;;20.50;99.90;;;;;;4936095;28;20435;-86
2022/08/05 08:05:00;;;;;;;5.03;1.40;;;20.80;99.90;;;;;;4938308;28;20051;-86
2022/08/05 08:07:26;;;;;;;4.82;1.35;;;20.80;99.90;;;;;;4955005;28;20191;-87
2022/08/05 08:09:52;;;;;;;4.90;1.38;;;21.10;99.90;;;;;;4950738;28;20075;-86
2022/08/05 08:12:18;;;;;;;4.07;1.35;;;21.10;99.90;;;;;;4953421;28;20179;-86
2022/08/05 08:14:44;;;;;;;4.63;1.30;;;21.20;99.90;;;;;;4938392;28;20050;-85
2022/08/05 08:17:10;;;;;;;5.25;1.38;;;21.10;99.90;;;;;;4934527;29;20073;-85
2022/08/05 08:19:37;;;;;;;5.85;1.60;;;21.00;99.90;;;;;;4956591;28;20039;-88
2022/08/05 08:22:03;;;;;;;6.10;1.58;;;21.20;99.90;;;;;;4953824;28;20480;-86
2022/08/05 08:24:30;;;;;;;5.80;1.58;;;21.30;99.90;;;;;;4953833;28;20484;-86
2022/08/05 08:26:56;;;;;;;3.08;1.15;;;21.50;99.90;;;;;;4954690;28;20064;-86
2022/08/05 08:29:22;;;;;;;5.25;1.40;;;21.30;99.90;;;;;;4952272;28;20507;-86
2022/08/05 08:31:48;;;;;;;1.95;1.00;;;21.20;99.90;;;;;;4935071;28;20042;-87
2022/08/05 08:34:15;;;;;;;4.65;1.30;;;21.10;99.90;;;;;;4953781;28;20404;-89
2022/08/05 08:36:41;;;;;;;4.13;1.30;;;21.00;99.90;;;;;;4938844;28;20039;-85
2022/08/05 08:39:07;;;;;;;4.90;1.50;;;21.10;99.90;;;;;;4953068;28;20043;-87
2022/08/05 08:41:33;;;;;;;4.47;1.45;;;21.30;99.90;;;;;;4932754;28;20043;-86
2022/08/05 08:44:00;;;;;;;3.28;1.25;;;21.70;99.90;;;;;;4969400;28;20049;-88
2022/08/05 08:46:29;;;;;;;3.55;1.30;;;21.70;99.90;;;;;;4954017;28;20081;-88
2022/08/05 08:48:56;;;;;;;3.22;1.20;;;21.80;99.90;;;;;;4952348;28;20039;-87
2022/08/05 08:51:26;;;;;;;3.10;1.08;;;21.90;99.90;;;;;;4951405;28;20058;-86
2022/08/05 08:53:52;;;;;;;5.07;1.20;;;21.60;99.90;;;;;;4967038;28;20047;-86
2022/08/05 08:56:20;;;;;;;5.57;1.17;;;21.20;99.90;;;;;;4952690;28;20537;-86
2022/08/05 08:58:46;;;;;;;2.53;1.13;;;20.80;99.90;;;;;;4938065;28;20038;-86
2022/08/05 09:01:12;;;;;;;5.13;1.23;;;20.40;99.90;;;;;;4967950;28;20132;-87
2022/08/05 09:03:39;;;;;;;6.97;1.30;;;20.50;99.90;;;;;;4951706;28;20045;-88
2022/08/05 09:06:05;;;;;;;2.08;1.05;;;21.10;99.90;;;;;;4950597;28;20042;-87
2022/08/05 09:08:31;;;;;;;5.25;1.50;;;20.70;99.90;;;;;;4934284;28;20054;-87
2022/08/05 09:10:58;;;;;;;5.00;1.40;;;21.00;99.90;;;;;;4950180;28;20043;-86
2022/08/05 09:13:24;;;;;;;6.00;1.20;;;21.00;99.90;;;;;;4962983;28;20523;-84
2022/08/05 09:15:51;;;;;;;4.05;1.08;;;20.80;99.90;;;;;;4951226;28;20039;-86
2022/08/05 09:18:17;;;;;;;5.32;1.30;;;20.60;99.90;;;;;;4975388;28;20041;-87
2022/08/05 09:20:44;;;;;;;3.38;1.10;;;20.50;99.90;;;;;;4967956;28;20043;-87
2022/08/05 09:23:11;;;;;;;3.30;1.10;;;20.40;99.90;;;;;;4951261;28;20279;-87
2022/08/05 09:25:42;;;;;;;3.88;1.30;;;20.60;99.90;;;;;;4949642;28;20051;-85
2022/08/05 09:28:23;;;;;;;3.95;1.20;;;20.80;99.90;;;;;;4968752;28;20470;-87
2022/08/05 09:30:53;;;;;;;2.33;1.00;;;20.90;99.90;;;;;;4951919;28;20077;-86
2022/08/05 09:33:18;;;;;;;5.78;1.27;;;20.90;99.90;;;;;;4953106;28;20078;-86
2022/08/05 09:36:02;;;;;;;3.40;1.13;;;20.80;99.90;;;;;;4951699;28;20081;-86
2022/08/05 09:38:29;;;;;;;2.95;0.90;;;20.80;99.90;;;;;;4950602;28;20049;-86
2022/08/05 09:41:06;;;;;;;4.70;1.10;;;21.00;99.90;;;;;;4959419;28;20110;-87
2022/08/05 09:43:36;;;;;;;2.95;1.00;;;21.00;99.90;;;;;;4962313;28;20062;-86
2022/08/05 09:46:05;;;;;;;3.80;0.90;;;21.20;99.90;;;;;;4949667;28;20043;-86
2022/08/05 09:48:33;;;;;;;5.78;1.40;;;21.20;99.90;;;;;;4968921;28;20046;-86
2022/08/05 09:51:04;;;;;;;3.35;1.10;;;21.10;99.90;;;;;;4952471;28;20050;-85
2022/08/05 09:53:54;;;;;;;3.17;0.85;;;21.20;99.90;;;;;;4953300;28;20420;-84
2022/08/05 09:56:38;;;;;;;5.05;1.10;;;21.10;99.90;;;;;;4950475;28;20063;-84
2022/08/05 09:59:05;;;;;;;5.65;1.35;;;21.10;99.90;;;;;;4952505;28;20388;-85
2022/08/05 10:01:32;;;;;;;2.67;1.00;;;21.00;99.90;;;;;;4953536;28;20101;-85
2022/08/05 10:04:02;;;;;;;3.80;0.95;;;21.10;99.90;;;;;;4969298;28;20412;-85
2022/08/05 10:06:28;;;;;;;4.50;1.13;;;21.20;99.90;;;;;;4950761;28;20035;-85
2022/08/05 10:08:54;;;;;;;3.53;1.02;;;21.40;99.90;;;;;;4935995;28;20105;-85
2022/08/05 10:11:20;;;;;;;1.65;0.77;;;21.50;99.90;;;;;;4969140;28;20039;-85
2022/08/05 10:13:46;;;;;;;3.03;1.00;;;21.50;99.90;;;;;;4953049;28;20042;-84
2022/08/05 10:16:33;;;;;;;2.45;1.15;;;21.50;99.90;;;;;;4966639;28;20046;-83
2022/08/05 10:18:59;;;;;;;4.18;1.13;;;21.60;99.90;;;;;;4948769;28;20070;-86
2022/08/05 10:21:26;;;;;;;4.63;1.05;;;21.50;99.90;;;;;;4951922;28;20447;-89
2022/08/05 10:23:53;;;;;;;3.72;1.30;;;21.60;99.90;;;;;;4952349;28;20214;-86
2022/08/05 10:26:19;;;;;;;4.97;1.00;;;21.60;99.90;;;;;;4951550;28;20125;-87
2022/08/05 10:28:45;;;;;;;4.88;1.10;;;21.70;99.90;;;;;;4932143;28;20130;-86
2022/08/05 10:31:14;;;;;;;3.35;0.95;;;21.80;99.90;;;;;;4962852;28;20069;-86
2022/08/05 10:33:40;;;;;;;4.22;1.05;;;21.90;99.90;;;;;;4962610;28;20405;-86
2022/08/05 10:36:06;;;;;;;3.45;0.93;;;21.80;99.90;;;;;;4967599;28;20078;-86
2022/08/05 10:38:34;;;;;;;3.40;1.17;;;21.70;99.90;;;;;;4950705;28;20389;-87
2022/08/05 10:41:10;;;;;;;3.83;0.90;;;21.60;99.90;;;;;;4968819;28;20074;-87
2022/08/05 10:43:58;;;;;;;1.38;0.63;;;21.80;99.90;;;;;;4968177;28;20050;-86
2022/08/05 10:46:41;;;;;;;1.85;0.60;;;21.80;99.90;;;;;;4968736;28;20126;-87
2022/08/05 10:49:07;;;;;;;;;;;21.90;99.90;;;;;;4936712;28;20038;-86
2022/08/05 10:51:42;;;;;;;1.45;0.65;;;21.90;99.90;;;;;;4934095;28;19918;-86
2022/08/05 10:54:09;;;;;;;1.00;0.52;;;21.90;99.90;;;;;;4959354;28;20065;-85
2022/08/05 10:56:57;;;;;;;0.60;0.30;;;21.80;99.90;;;;;;4937241;28;20478;-86
2022/08/05 10:59:28;;;;;;;0.82;0.50;;;21.80;99.90;;;;;;4952115;28;20121;-83
2022/08/05 11:02:13;;;;;;;1.90;0.57;;;21.70;99.90;;;;;;4952513;28;20057;-86
2022/08/05 11:04:43;;;;;;;3.72;0.90;;;21.80;99.90;;;;;;4969129;28;20046;-87
2022/08/05 11:07:14;;;;;;;1.65;0.75;;;21.80;99.90;;;;;;4967303;28;20043;-84
2022/08/05 11:09:48;;;;;;;2.53;0.73;;;22.00;99.90;;;;;;4934920;28;20065;-85
2022/08/05 11:12:23;;;;;;;3.00;0.75;;;22.20;99.90;;;;;;4954921;28;20034;-86
2022/08/05 11:15:17;;;;;;;2.65;0.68;;;22.10;99.90;;;;;;4954771;28;20121;-86
2022/08/05 11:17:45;;;;;;;1.80;0.50;;;22.20;99.90;;;;;;4927002;28;20050;-86
2022/08/05 11:20:31;;;;;;;1.80;0.68;;;22.20;99.90;;;;;;4951249;28;20050;-86
2022/08/05 11:22:57;;;;;;;3.30;0.98;;;22.10;99.90;;;;;;4965232;28;20101;-86
2022/08/05 11:25:27;;;;;;;2.67;0.55;;;22.00;99.90;;;;;;4953909;28;20043;-86
2022/08/05 11:27:54;;;;;;;1.85;0.57;;;21.70;99.90;;;;;;4960624;28;20041;-86
2022/08/05 11:30:20;;;;;;;1.08;0.50;;;21.60;99.90;;;;;;4950037;28;20054;-86
2022/08/05 11:32:46;;;;;;;1.23;0.65;;;21.60;99.90;;;;;;4969890;28;20043;-86
2022/08/05 11:35:49;;;;;;;4.47;1.10;;;21.50;99.90;;;;;;4938254;28;20401;-85
2022/08/05 11:38:15;;;;;;;4.35;1.02;;;21.30;99.90;;;;;;4970109;28;20047;-86
2022/08/05 11:41:03;;;;;;;4.43;1.00;;;21.20;99.90;;;;;;4930792;28;20070;-85
2022/08/05 11:43:30;;;;;;;4.30;0.77;;;21.20;99.90;;;;;;4954368;28;20035;-85
2022/08/05 11:45:56;;;;;;;2.72;0.70;;;21.20;99.90;;;;;;4967281;28;20046;-87
2022/08/05 11:48:22;;;;;;;2.88;0.80;;;21.30;99.90;;;;;;4951783;28;20046;-85
2022/08/05 11:50:52;;;;;;;5.13;0.80;;;21.20;99.90;;;;;;4935227;28;20043;-84
2022/08/05 11:53:19;;;;;;;5.22;0.88;;;21.00;99.90;;;;;;4969894;28;20713;-85
2022/08/05 11:56:01;;;;;;;3.08;0.93;;;21.10;99.90;;;;;;4935307;29;20054;-85
2022/08/05 11:58:34;;;;;;;5.20;0.83;;;21.00;99.90;;;;;;4953517;28;20230;-84
2022/08/05 12:01:08;;;;;;;3.30;0.77;;;20.90;99.90;;;;;;4934380;28;20140;-86
2022/08/05 12:03:53;;;;;;;4.38;0.70;;;21.00;99.90;;;;;;4954143;28;20035;-85
2022/08/05 12:06:22;;;;;;;2.72;0.77;;;21.00;99.90;;;;;;4967148;28;20498;-85
2022/08/05 12:08:50;;;;;;;4.35;0.90;;;21.00;99.90;;;;;;4948814;28;20112;-87
2022/08/05 12:11:21;;;;;;;4.57;0.90;;;20.90;99.90;;;;;;4947638;28;20089;-86
2022/08/05 12:13:58;;;;;;;5.90;1.13;;;20.80;99.90;;;;;;4968043;28;20461;-86
2022/08/05 12:16:30;;;;;;;4.43;1.00;;;20.90;99.90;;;;;;4952983;28;20030;-85
2022/08/05 12:18:56;;;;;;;2.25;0.80;;;20.90;99.90;;;;;;4950089;28;20041;-84
2022/08/05 12:21:30;;;;;;;1.70;0.70;;;21.10;99.90;;;;;;4935138;28;20042;-84
2022/08/05 12:24:05;;;;;;;3.25;0.70;;;21.20;99.90;;;;;;4951701;28;21936;-85
2022/08/05 12:26:42;;;;;;;3.38;0.88;;;21.20;99.90;;;;;;4948640;28;20070;-84
2022/08/05 12:29:15;;;;;;;2.67;0.80;;;21.00;99.90;;;;;;4963534;28;20097;-85
2022/08/05 12:31:45;;;;;;;2.83;0.90;;;20.70;99.90;;;;;;4961519;28;20056;-87
2022/08/05 12:34:11;;;;;;;1.88;0.85;;;20.50;99.90;;;;;;4949565;28;20034;-87
2022/08/05 12:36:37;;;;;;;4.53;1.00;;;20.50;99.90;;;;;;4932633;29;20059;-86
2022/08/05 12:39:04;;;;;;;1.35;0.60;;;20.80;99.90;;;;;;4964327;28;20055;-88
2022/08/05 12:41:35;;;;;;;5.25;1.00;;;21.00;99.90;;;;;;4936088;28;20069;-87
2022/08/05 12:44:04;;;;;;;2.72;0.80;;;21.20;99.90;;;;;;4950809;28;20047;-85
2022/08/05 12:46:32;;;;;;;4.78;0.85;;;21.40;99.90;;;;;;4953498;28;20042;-86
2022/08/05 12:49:20;;;;;;;1.75;0.65;;;21.40;99.90;;;;;;4953712;28;20031;-84
2022/08/05 12:51:52;;;;;;;3.97;0.75;;;21.30;99.90;;;;;;4950571;28;20078;-86
2022/08/05 12:54:30;;;;;;;4.10;1.13;;;21.30;99.90;;;;;;4947453;28;20073;-85
2022/08/05 12:57:03;;;;;;;2.42;0.85;;;21.20;99.90;;;;;;4970548;28;20109;-86
2022/08/05 12:59:31;;;;;;;2.20;0.80;;;21.00;99.90;;;;;;4952021;28;20054;-85